sensor_id;sensor_type;location;lat;lon;timestamp;pressure;altitude;pressure_sealevel;temperature;humidity
23427;BME280;41148;45.420;10.952;2023-05-25T00:01:45;100592.06;;;20.83;64.89
23427;BME280;41148;45.420;10.952;2023-05-25T00:04:15;100597.28;;;20.86;65.02
23427;BME280;41148;45.420;10.952;2023-05-25T00:06:45;100588.59;;;20.81;65.02
23427;BME280;41148;45.420;10.952;2023-05-25T00:09:13;100595.31;;;20.89;65.42
23427;BME280;41148;45.420;10.952;2023-05-25T00:11:42;100597.16;;;20.88;66.12
23427;BME280;41148;45.420;10.952;2023-05-25T00:14:09;100604.72;;;20.83;67.29
23427;BME280;41148;45.420;10.952;2023-05-25T00:16:37;100601.81;;;20.73;70.70
23427;BME280;41148;45.420;10.952;2023-05-25T00:19:07;100586.69;;;20.58;69.89
23427;BME280;41148;45.420;10.952;2023-05-25T00:21:37;100588.66;;;20.56;70.21
23427;BME280;41148;45.420;10.952;2023-05-25T00:24:05;100601.94;;;20.59;70.77
23427;BME280;41148;45.420;10.952;2023-05-25T00:26:33;100600.66;;;20.52;70.98
23427;BME280;41148;45.420;10.952;2023-05-25T00:29:04;100600.66;;;20.52;71.50
23427;BME280;41148;45.420;10.952;2023-05-25T00:31:32;100616.88;;;20.52;70.34
23427;BME280;41148;45.420;10.952;2023-05-25T00:34:01;100620.22;;;20.55;67.91
23427;BME280;41148;45.420;10.952;2023-05-25T00:36:29;100627.28;;;20.58;68.47
23427;BME280;41148;45.420;10.952;2023-05-25T00:38:57;100619.28;;;20.56;67.12
23427;BME280;41148;45.420;10.952;2023-05-25T00:41:25;100642.31;;;20.62;68.87
23427;BME280;41148;45.420;10.952;2023-05-25T00:43:55;100647.53;;;20.78;66.41
23427;BME280;41148;45.420;10.952;2023-05-25T00:46:24;100662.25;;;20.74;66.92
23427;BME280;41148;45.420;10.952;2023-05-25T00:48:53;100648.06;;;20.70;68.05
23427;BME280;41148;45.420;10.952;2023-05-25T00:51:22;100669.72;;;20.57;70.86
23427;BME280;41148;45.420;10.952;2023-05-25T00:53:49;100661.88;;;20.40;72.50
23427;BME280;41148;45.420;10.952;2023-05-25T00:56:29;100674.91;;;20.08;74.85
23427;BME280;41148;45.420;10.952;2023-05-25T00:59:03;100670.16;;;20.12;75.56
23427;BME280;41148;45.420;10.952;2023-05-25T01:01:34;100684.75;;;20.09;76.22
23427;BME280;41148;45.420;10.952;2023-05-25T01:04:07;100675.81;;;20.21;75.02
23427;BME280;41148;45.420;10.952;2023-05-25T01:06:37;100680.50;;;20.05;74.24
23427;BME280;41148;45.420;10.952;2023-05-25T01:09:07;100689.63;;;20.17;74.92
23427;BME280;41148;45.420;10.952;2023-05-25T01:11:38;100701.63;;;20.13;77.60
23427;BME280;41148;45.420;10.952;2023-05-25T01:14:07;100703.97;;;20.05;80.19
23427;BME280;41148;45.420;10.952;2023-05-25T01:16:34;100695.59;;;19.68;79.11
23427;BME280;41148;45.420;10.952;2023-05-25T01:19:03;100692.47;;;19.61;80.07
23427;BME280;41148;45.420;10.952;2023-05-25T01:21:41;100697.59;;;19.09;92.26
23427;BME280;41148;45.420;10.952;2023-05-25T01:24:37;100701.75;;;18.86;95.72
23427;BME280;41148;45.420;10.952;2023-05-25T01:27:24;100721.13;;;18.93;99.34
23427;BME280;41148;45.420;10.952;2023-05-25T01:30:01;100714.94;;;18.76;100.00
23427;BME280;41148;45.420;10.952;2023-05-25T01:32:30;100722.84;;;18.79;100.00
23427;BME280;41148;45.420;10.952;2023-05-25T01:35:01;100717.22;;;18.68;100.00
23427;BME280;41148;45.420;10.952;2023-05-25T01:37:29;100713.78;;;18.66;100.00
23427;BME280;41148;45.420;10.952;2023-05-25T01:39:58;100697.75;;;18.63;100.00
23427;BME280;41148;45.420;10.952;2023-05-25T01:42:25;100715.59;;;18.66;100.00
23427;BME280;41148;45.420;10.952;2023-05-25T01:44:52;100715.19;;;18.42;100.00
23427;BME280;41148;45.420;10.952;2023-05-25T01:50:26;100739.78;;;18.37;100.00
23427;BME280;41148;45.420;10.952;2023-05-25T01:55:29;100735.19;;;18.23;100.00
23427;BME280;41148;45.420;10.952;2023-05-25T01:57:59;100738.72;;;18.40;100.00
23427;BME280;41148;45.420;10.952;2023-05-25T02:00:30;100736.31;;;18.35;100.00
23427;BME280;41148;45.420;10.952;2023-05-25T02:03:00;100733.13;;;18.43;100.00
23427;BME280;41148;45.420;10.952;2023-05-25T02:05:28;100732.47;;;18.23;100.00
23427;BME280;41148;45.420;10.952;2023-05-25T02:07:56;100720.50;;;18.13;100.00
23427;BME280;41148;45.420;10.952;2023-05-25T02:10:23;100709.56;;;18.16;100.00
23427;BME280;41148;45.420;10.952;2023-05-25T02:12:51;100703.66;;;18.10;100.00
23427;BME280;41148;45.420;10.952;2023-05-25T02:15:20;100715.81;;;18.17;100.00
23427;BME280;41148;45.420;10.952;2023-05-25T02:17:47;100707.59;;;17.88;100.00
23427;BME280;41148;45.420;10.952;2023-05-25T02:20:15;100721.03;;;18.04;100.00
23427;BME280;41148;45.420;10.952;2023-05-25T02:22:43;100718.63;;;17.99;100.00
23427;BME280;41148;45.420;10.952;2023-05-25T02:25:10;100716.50;;;18.05;100.00
23427;BME280;41148;45.420;10.952;2023-05-25T02:27:38;100714.38;;;17.95;100.00
23427;BME280;41148;45.420;10.952;2023-05-25T02:30:07;100732.47;;;18.23;100.00
23427;BME280;41148;45.420;10.952;2023-05-25T02:32:34;100729.75;;;18.09;100.00
23427;BME280;41148;45.420;10.952;2023-05-25T02:35:02;100735.03;;;18.11;100.00
23427;BME280;41148;45.420;10.952;2023-05-25T02:37:30;100730.59;;;18.10;100.00
23427;BME280;41148;45.420;10.952;2023-05-25T02:39:58;100742.88;;;17.99;100.00
23427;BME280;41148;45.420;10.952;2023-05-25T02:42:25;100719.16;;;17.74;100.00
23427;BME280;41148;45.420;10.952;2023-05-25T02:44:53;100707.34;;;17.77;100.00
23427;BME280;41148;45.420;10.952;2023-05-25T02:47:20;100707.94;;;17.82;100.00
23427;BME280;41148;45.420;10.952;2023-05-25T02:49:48;100718.47;;;17.71;100.00
23427;BME280;41148;45.420;10.952;2023-05-25T02:52:16;100709.34;;;17.73;100.00
23427;BME280;41148;45.420;10.952;2023-05-25T02:54:44;100699.63;;;17.71;100.00
23427;BME280;41148;45.420;10.952;2023-05-25T02:57:18;100694.13;;;17.88;100.00
23427;BME280;41148;45.420;10.952;2023-05-25T02:59:45;100696.38;;;17.96;100.00
23427;BME280;41148;45.420;10.952;2023-05-25T03:02:13;100694.03;;;17.90;100.00
23427;BME280;41148;45.420;10.952;2023-05-25T03:04:40;100703.66;;;17.94;100.00
23427;BME280;41148;45.420;10.952;2023-05-25T03:07:08;100696.63;;;17.91;100.00
23427;BME280;41148;45.420;10.952;2023-05-25T03:09:36;100715.16;;;17.97;100.00
23427;BME280;41148;45.420;10.952;2023-05-25T03:12:03;100702.69;;;17.95;100.00
23427;BME280;41148;45.420;10.952;2023-05-25T03:14:31;100701.44;;;17.86;100.00
23427;BME280;41148;45.420;10.952;2023-05-25T03:17:03;100712.47;;;17.97;99.00
23427;BME280;41148;45.420;10.952;2023-05-25T03:19:30;100706.72;;;17.88;98.08
23427;BME280;41148;45.420;10.952;2023-05-25T03:21:59;100737.75;;;17.95;96.47
23427;BME280;41148;45.420;10.952;2023-05-25T03:24:26;100737.94;;;17.92;93.72
23427;BME280;41148;45.420;10.952;2023-05-25T03:26:58;100734.66;;;17.87;93.08
23427;BME280;41148;45.420;10.952;2023-05-25T03:29:26;100739.94;;;17.88;94.35
23427;BME280;41148;45.420;10.952;2023-05-25T03:31:54;100758.28;;;17.82;94.20
23427;BME280;41148;45.420;10.952;2023-05-25T03:34:25;100751.84;;;17.84;96.48
23427;BME280;41148;45.420;10.952;2023-05-25T03:36:52;100753.50;;;17.87;96.47
23427;BME280;41148;45.420;10.952;2023-05-25T03:39:21;100743.75;;;17.84;94.64
23427;BME280;41148;45.420;10.952;2023-05-25T03:41:50;100762.19;;;17.92;96.27
23427;BME280;41148;45.420;10.952;2023-05-25T03:44:18;100757.06;;;17.87;97.13
23427;BME280;41148;45.420;10.952;2023-05-25T03:46:46;100769.69;;;17.87;98.01
23427;BME280;41148;45.420;10.952;2023-05-25T03:49:13;100784.63;;;17.92;98.45
23427;BME280;41148;45.420;10.952;2023-05-25T03:51:41;100776.38;;;17.80;100.00
23427;BME280;41148;45.420;10.952;2023-05-25T03:54:09;100776.00;;;17.70;100.00
23427;BME280;41148;45.420;10.952;2023-05-25T03:56:36;100779.56;;;17.70;100.00
23427;BME280;41148;45.420;10.952;2023-05-25T03:59:04;100786.22;;;17.63;100.00
23427;BME280;41148;45.420;10.952;2023-05-25T04:01:32;100783.22;;;17.85;100.00
23427;BME280;41148;45.420;10.952;2023-05-25T04:04:01;100792.25;;;17.84;100.00
23427;BME280;41148;45.420;10.952;2023-05-25T04:06:29;100792.56;;;17.62;100.00
23427;BME280;41148;45.420;10.952;2023-05-25T04:08:56;100791.53;;;17.65;100.00
23427;BME280;41148;45.420;10.952;2023-05-25T04:11:25;100802.28;;;17.65;100.00
23427;BME280;41148;45.420;10.952;2023-05-25T04:13:53;100792.34;;;17.67;100.00
23427;BME280;41148;45.420;10.952;2023-05-25T04:16:23;100803.75;;;17.72;100.00
23427;BME280;41148;45.420;10.952;2023-05-25T04:18:52;100808.50;;;17.67;100.00
23427;BME280;41148;45.420;10.952;2023-05-25T04:21:20;100800.28;;;17.53;100.00
23427;BME280;41148;45.420;10.952;2023-05-25T04:23:49;100827.69;;;17.61;100.00
23427;BME280;41148;45.420;10.952;2023-05-25T04:26:17;100815.31;;;17.41;100.00
23427;BME280;41148;45.420;10.952;2023-05-25T04:28:47;100821.94;;;17.51;100.00
23427;BME280;41148;45.420;10.952;2023-05-25T04:31:35;100811.94;;;17.53;100.00
23427;BME280;41148;45.420;10.952;2023-05-25T04:34:22;100804.81;;;17.52;100.00
23427;BME280;41148;45.420;10.952;2023-05-25T04:37:00;100805.41;;;17.41;100.00
23427;BME280;41148;45.420;10.952;2023-05-25T04:39:31;100816.44;;;17.53;100.00
23427;BME280;41148;45.420;10.952;2023-05-25T04:41:59;100807.59;;;17.51;100.00
23427;BME280;41148;45.420;10.952;2023-05-25T04:44:31;100809.41;;;17.50;100.00
23427;BME280;41148;45.420;10.952;2023-05-25T04:47:00;100813.06;;;17.49;100.00
23427;BME280;41148;45.420;10.952;2023-05-25T04:49:31;100822.53;;;17.56;100.00
23427;BME280;41148;45.420;10.952;2023-05-25T04:51:59;100825.41;;;17.53;100.00
23427;BME280;41148;45.420;10.952;2023-05-25T04:54:28;100814.97;;;17.47;100.00
23427;BME280;41148;45.420;10.952;2023-05-25T04:56:58;100828.97;;;17.54;100.00
23427;BME280;41148;45.420;10.952;2023-05-25T04:59:26;100820.88;;;17.38;100.00
23427;BME280;41148;45.420;10.952;2023-05-25T05:01:53;100815.13;;;17.44;100.00
23427;BME280;41148;45.420;10.952;2023-05-25T05:04:21;100817.88;;;17.60;100.00
23427;BME280;41148;45.420;10.952;2023-05-25T05:06:49;100832.44;;;17.56;100.00
23427;BME280;41148;45.420;10.952;2023-05-25T05:09:19;100836.00;;;17.56;100.00
23427;BME280;41148;45.420;10.952;2023-05-25T05:11:47;100821.72;;;17.38;100.00
23427;BME280;41148;45.420;10.952;2023-05-25T05:14:15;100835.41;;;17.51;100.00
23427;BME280;41148;45.420;10.952;2023-05-25T05:16:44;100853.22;;;17.54;100.00
23427;BME280;41148;45.420;10.952;2023-05-25T05:19:14;100843.19;;;17.40;100.00
23427;BME280;41148;45.420;10.952;2023-05-25T05:21:41;100841.22;;;17.26;100.00
23427;BME280;41148;45.420;10.952;2023-05-25T05:24:09;100855.41;;;17.30;100.00
23427;BME280;41148;45.420;10.952;2023-05-25T05:26:39;100864.19;;;17.33;100.00
23427;BME280;41148;45.420;10.952;2023-05-25T05:29:26;100877.38;;;17.55;100.00
23427;BME280;41148;45.420;10.952;2023-05-25T05:31:54;100884.81;;;17.67;100.00
23427;BME280;41148;45.420;10.952;2023-05-25T05:34:22;100892.66;;;17.72;100.00
23427;BME280;41148;45.420;10.952;2023-05-25T05:36:50;100896.84;;;17.78;100.00
23427;BME280;41148;45.420;10.952;2023-05-25T05:39:26;100887.56;;;17.66;100.00
23427;BME280;41148;45.420;10.952;2023-05-25T05:41:54;100885.44;;;17.72;100.00
23427;BME280;41148;45.420;10.952;2023-05-25T05:44:22;100886.41;;;17.71;100.00
23427;BME280;41148;45.420;10.952;2023-05-25T05:46:56;100884.06;;;17.81;100.00
23427;BME280;41148;45.420;10.952;2023-05-25T05:49:29;100894.25;;;17.76;100.00
23427;BME280;41148;45.420;10.952;2023-05-25T05:51:58;100872.16;;;17.85;100.00
23427;BME280;41148;45.420;10.952;2023-05-25T05:54:26;100897.41;;;18.00;100.00
23427;BME280;41148;45.420;10.952;2023-05-25T05:56:56;100886.97;;;18.10;100.00
23427;BME280;41148;45.420;10.952;2023-05-25T05:59:24;100900.72;;;18.05;100.00
23427;BME280;41148;45.420;10.952;2023-05-25T06:01:52;100893.88;;;18.15;100.00
23427;BME280;41148;45.420;10.952;2023-05-25T06:04:20;100906.66;;;18.27;99.10
23427;BME280;41148;45.420;10.952;2023-05-25T06:06:51;100915.19;;;18.36;100.00
23427;BME280;41148;45.420;10.952;2023-05-25T06:09:19;100901.94;;;18.31;100.00
23427;BME280;41148;45.420;10.952;2023-05-25T06:11:46;100914.66;;;18.45;93.56
23427;BME280;41148;45.420;10.952;2023-05-25T06:14:14;100920.06;;;18.45;96.51
23427;BME280;41148;45.420;10.952;2023-05-25T06:16:41;100933.38;;;18.48;97.37
23427;BME280;41148;45.420;10.952;2023-05-25T06:19:10;100929.28;;;18.56;93.67
23427;BME280;41148;45.420;10.952;2023-05-25T06:21:37;100936.22;;;18.60;95.61
23427;BME280;41148;45.420;10.952;2023-05-25T06:24:05;100940.06;;;18.56;95.33
23427;BME280;41148;45.420;10.952;2023-05-25T06:26:33;100936.78;;;18.67;88.33
23427;BME280;41148;45.420;10.952;2023-05-25T06:29:01;100932.94;;;18.71;86.04
23427;BME280;41148;45.420;10.952;2023-05-25T06:31:28;100929.00;;;18.61;88.71
23427;BME280;41148;45.420;10.952;2023-05-25T06:33:56;100945.28;;;18.59;87.50
23427;BME280;41148;45.420;10.952;2023-05-25T06:36:23;100953.94;;;18.66;88.87
23427;BME280;41148;45.420;10.952;2023-05-25T06:38:52;100946.63;;;18.68;86.82
23427;BME280;41148;45.420;10.952;2023-05-25T06:41:20;100957.41;;;18.68;90.90
23427;BME280;41148;45.420;10.952;2023-05-25T06:43:48;100958.53;;;18.64;91.14
23427;BME280;41148;45.420;10.952;2023-05-25T06:46:24;100959.00;;;18.72;88.13
23427;BME280;41148;45.420;10.952;2023-05-25T06:48:52;100957.94;;;18.75;87.70
23427;BME280;41148;45.420;10.952;2023-05-25T06:51:19;100960.34;;;18.64;91.29
23427;BME280;41148;45.420;10.952;2023-05-25T06:53:47;100965.16;;;18.74;86.81
23427;BME280;41148;45.420;10.952;2023-05-25T06:56:14;100976.81;;;18.75;86.77
23427;BME280;41148;45.420;10.952;2023-05-25T06:58:42;100970.19;;;18.80;83.77
23427;BME280;41148;45.420;10.952;2023-05-25T07:01:09;100965.41;;;18.85;81.99
23427;BME280;41148;45.420;10.952;2023-05-25T07:03:37;100970.09;;;18.98;82.11
23427;BME280;41148;45.420;10.952;2023-05-25T07:06:05;100968.97;;;19.02;83.17
23427;BME280;41148;45.420;10.952;2023-05-25T07:08:33;100975.81;;;19.07;82.61
23427;BME280;41148;45.420;10.952;2023-05-25T07:11:00;100963.59;;;19.16;81.27
23427;BME280;41148;45.420;10.952;2023-05-25T07:13:28;100967.59;;;19.25;82.22
23427;BME280;41148;45.420;10.952;2023-05-25T07:15:55;100965.56;;;19.28;81.98
23427;BME280;41148;45.420;10.952;2023-05-25T07:18:22;100961.56;;;19.35;80.87
23427;BME280;41148;45.420;10.952;2023-05-25T07:20:50;100964.88;;;19.55;79.49
23427;BME280;41148;45.420;10.952;2023-05-25T07:23:17;100967.34;;;19.73;78.11
23427;BME280;41148;45.420;10.952;2023-05-25T07:25:45;100967.34;;;19.88;76.72
23427;BME280;41148;45.420;10.952;2023-05-25T07:28:12;100968.72;;;19.81;74.64
23427;BME280;41148;45.420;10.952;2023-05-25T07:30:40;100978.16;;;19.88;76.64
23427;BME280;41148;45.420;10.952;2023-05-25T07:33:07;100977.31;;;19.87;77.31
23427;BME280;41148;45.420;10.952;2023-05-25T07:35:35;100983.09;;;19.81;74.48
23427;BME280;41148;45.420;10.952;2023-05-25T07:38:03;100981.94;;;19.85;73.64
23427;BME280;41148;45.420;10.952;2023-05-25T07:40:30;100991.13;;;19.83;75.68
23427;BME280;41148;45.420;10.952;2023-05-25T07:42:58;101004.84;;;19.94;74.93
23427;BME280;41148;45.420;10.952;2023-05-25T07:45:25;101007.56;;;20.08;74.06
23427;BME280;41148;45.420;10.952;2023-05-25T07:47:53;101000.03;;;19.99;74.14
23427;BME280;41148;45.420;10.952;2023-05-25T07:50:20;101002.34;;;20.19;74.06
23427;BME280;41148;45.420;10.952;2023-05-25T07:52:48;100994.25;;;20.19;75.14
23427;BME280;41148;45.420;10.952;2023-05-25T07:55:16;101013.56;;;20.13;74.25
23427;BME280;41148;45.420;10.952;2023-05-25T07:57:45;101015.97;;;20.32;73.97
23427;BME280;41148;45.420;10.952;2023-05-25T08:00:13;101006.28;;;20.42;75.08
23427;BME280;41148;45.420;10.952;2023-05-25T08:02:40;101014.72;;;20.52;72.45
23427;BME280;41148;45.420;10.952;2023-05-25T08:05:09;101021.41;;;20.46;72.72
23427;BME280;41148;45.420;10.952;2023-05-25T08:07:36;101019.66;;;20.31;71.99
23427;BME280;41148;45.420;10.952;2023-05-25T08:10:07;101020.03;;;20.25;72.74
23427;BME280;41148;45.420;10.952;2023-05-25T08:12:35;101021.41;;;20.18;74.94
23427;BME280;41148;45.420;10.952;2023-05-25T08:15:15;101004.00;;;20.08;74.80
23427;BME280;41148;45.420;10.952;2023-05-25T08:17:43;101024.47;;;20.12;73.46
23427;BME280;41148;45.420;10.952;2023-05-25T08:20:11;101028.41;;;20.06;72.95
23427;BME280;41148;45.420;10.952;2023-05-25T08:22:38;101018.28;;;20.10;71.99
23427;BME280;41148;45.420;10.952;2023-05-25T08:25:07;101026.50;;;20.08;72.49
23427;BME280;41148;45.420;10.952;2023-05-25T08:27:34;101031.41;;;20.16;72.04
23427;BME280;41148;45.420;10.952;2023-05-25T08:30:03;101033.56;;;20.11;71.56
23427;BME280;41148;45.420;10.952;2023-05-25T08:32:32;101029.38;;;20.05;71.87
23427;BME280;41148;45.420;10.952;2023-05-25T08:35:00;101045.81;;;20.16;71.70
23427;BME280;41148;45.420;10.952;2023-05-25T08:37:32;101042.44;;;20.13;73.10
23427;BME280;41148;45.420;10.952;2023-05-25T08:40:00;101040.50;;;20.15;70.69
23427;BME280;41148;45.420;10.952;2023-05-25T08:42:30;101052.59;;;20.09;72.01
23427;BME280;41148;45.420;10.952;2023-05-25T08:44:57;101051.53;;;20.12;73.30
23427;BME280;41148;45.420;10.952;2023-05-25T08:47:30;101046.56;;;20.04;75.04
23427;BME280;41148;45.420;10.952;2023-05-25T08:49:59;101056.06;;;20.11;74.71
23427;BME280;41148;45.420;10.952;2023-05-25T08:52:28;101058.97;;;20.08;74.36
23427;BME280;41148;45.420;10.952;2023-05-25T08:55:00;101056.44;;;20.05;74.33
23427;BME280;41148;45.420;10.952;2023-05-25T08:57:47;101068.63;;;20.12;74.44
23427;BME280;41148;45.420;10.952;2023-05-25T09:00:20;101066.09;;;20.09;76.30
23427;BME280;41148;45.420;10.952;2023-05-25T09:03:27;101067.34;;;20.04;76.18
23427;BME280;41148;45.420;10.952;2023-05-25T09:05:56;101063.59;;;20.20;74.74
23427;BME280;41148;45.420;10.952;2023-05-25T09:08:25;101064.84;;;20.15;76.17
23427;BME280;41148;45.420;10.952;2023-05-25T09:10:54;101072.13;;;20.28;76.28
23427;BME280;41148;45.420;10.952;2023-05-25T09:13:22;101072.88;;;20.30;75.47
23427;BME280;41148;45.420;10.952;2023-05-25T09:15:50;101077.56;;;20.43;74.65
23427;BME280;41148;45.420;10.952;2023-05-25T09:18:19;101076.72;;;20.56;73.99
23427;BME280;41148;45.420;10.952;2023-05-25T09:20:46;101081.13;;;20.72;72.10
23427;BME280;41148;45.420;10.952;2023-05-25T09:23:14;101072.91;;;20.88;72.64
23427;BME280;41148;45.420;10.952;2023-05-25T09:25:43;101077.41;;;21.01;71.79
23427;BME280;41148;45.420;10.952;2023-05-25T09:28:12;101083.94;;;21.26;69.06
23427;BME280;41148;45.420;10.952;2023-05-25T09:30:53;101077.69;;;21.52;67.98
23427;BME280;41148;45.420;10.952;2023-05-25T09:33:22;101074.78;;;21.81;66.07
23427;BME280;41148;45.420;10.952;2023-05-25T09:35:50;101079.41;;;21.93;66.74
23427;BME280;41148;45.420;10.952;2023-05-25T09:38:18;101080.53;;;22.16;62.91
23427;BME280;41148;45.420;10.952;2023-05-25T09:40:45;101064.59;;;22.11;60.94
23427;BME280;41148;45.420;10.952;2023-05-25T09:43:13;101077.72;;;22.30;59.21
23427;BME280;41148;45.420;10.952;2023-05-25T09:45:58;101085.88;;;22.30;57.10
23427;BME280;41148;45.420;10.952;2023-05-25T09:48:26;101088.66;;;22.28;57.51
23427;BME280;41148;45.420;10.952;2023-05-25T09:50:55;101074.56;;;22.36;57.81
23427;BME280;41148;45.420;10.952;2023-05-25T09:53:23;101075.66;;;22.59;58.71
23427;BME280;41148;45.420;10.952;2023-05-25T09:55:53;101074.28;;;22.77;58.10
23427;BME280;41148;45.420;10.952;2023-05-25T09:58:22;101087.84;;;22.77;54.86
23427;BME280;41148;45.420;10.952;2023-05-25T10:00:54;101075.72;;;22.57;54.17
23427;BME280;41148;45.420;10.952;2023-05-25T10:03:21;101082.56;;;22.63;53.87
23427;BME280;41148;45.420;10.952;2023-05-25T10:05:51;101085.94;;;22.54;53.75
23427;BME280;41148;45.420;10.952;2023-05-25T10:08:20;101083.13;;;22.43;53.29
23427;BME280;41148;45.420;10.952;2023-05-25T10:10:48;101085.44;;;22.49;54.49
23427;BME280;41148;45.420;10.952;2023-05-25T10:13:20;101089.63;;;22.78;54.86
23427;BME280;41148;45.420;10.952;2023-05-25T10:15:52;101073.41;;;22.77;54.57
23427;BME280;41148;45.420;10.952;2023-05-25T10:18:24;101082.47;;;22.90;55.58
23427;BME280;41148;45.420;10.952;2023-05-25T10:21:02;101078.31;;;22.97;53.58
23427;BME280;41148;45.420;10.952;2023-05-25T10:23:40;101081.59;;;22.90;52.56
23427;BME280;41148;45.420;10.952;2023-05-25T10:26:10;101066.91;;;22.79;52.08
23427;BME280;41148;45.420;10.952;2023-05-25T10:28:42;101076.47;;;22.85;51.45
23427;BME280;41148;45.420;10.952;2023-05-25T10:31:11;101074.94;;;22.94;51.27
23427;BME280;41148;45.420;10.952;2023-05-25T10:33:39;101068.13;;;22.88;51.51
23427;BME280;41148;45.420;10.952;2023-05-25T10:36:07;101069.97;;;22.88;52.85
23427;BME280;41148;45.420;10.952;2023-05-25T10:38:41;101066.16;;;22.90;51.43
23427;BME280;41148;45.420;10.952;2023-05-25T10:41:10;101076.75;;;23.06;51.65
23427;BME280;41148;45.420;10.952;2023-05-25T10:43:38;101068.81;;;23.03;51.47
23427;BME280;41148;45.420;10.952;2023-05-25T10:46:07;101053.88;;;22.97;51.70
23427;BME280;41148;45.420;10.952;2023-05-25T10:48:38;101056.97;;;23.04;52.11
23427;BME280;41148;45.420;10.952;2023-05-25T10:51:06;101064.19;;;23.29;51.14
23427;BME280;41148;45.420;10.952;2023-05-25T10:53:37;101068.75;;;23.28;52.54
23427;BME280;41148;45.420;10.952;2023-05-25T10:56:06;101055.41;;;23.12;50.63
23427;BME280;41148;45.420;10.952;2023-05-25T10:58:40;101041.91;;;22.87;51.37
23427;BME280;41148;45.420;10.952;2023-05-25T11:01:13;101063.75;;;23.22;51.38
23427;BME280;41148;45.420;10.952;2023-05-25T11:06:13;101063.50;;;23.25;49.68
23427;BME280;41148;45.420;10.952;2023-05-25T11:11:15;101052.38;;;23.17;50.65
23427;BME280;41148;45.420;10.952;2023-05-25T11:13:44;101047.28;;;23.36;48.59
23427;BME280;41148;45.420;10.952;2023-05-25T11:19:15;101041.50;;;23.65;45.15
23427;BME280;41148;45.420;10.952;2023-05-25T11:21:43;101043.91;;;23.57;45.34
23427;BME280;41148;45.420;10.952;2023-05-25T11:24:13;101041.41;;;23.54;45.51
23427;BME280;41148;45.420;10.952;2023-05-25T11:26:55;101037.84;;;23.77;45.34
23427;BME280;41148;45.420;10.952;2023-05-25T11:29:23;101045.00;;;23.78;45.64
23427;BME280;41148;45.420;10.952;2023-05-25T11:31:54;101039.56;;;23.54;44.82
23427;BME280;41148;45.420;10.952;2023-05-25T11:34:23;101030.56;;;23.89;44.42
23427;BME280;41148;45.420;10.952;2023-05-25T11:36:53;101034.88;;;23.80;45.89
23427;BME280;41148;45.420;10.952;2023-05-25T11:39:21;101027.13;;;23.63;45.86
23427;BME280;41148;45.420;10.952;2023-05-25T11:41:53;101021.53;;;23.88;41.87
23427;BME280;41148;45.420;10.952;2023-05-25T11:44:29;101025.88;;;24.02;41.11
23427;BME280;41148;45.420;10.952;2023-05-25T11:47:02;101016.81;;;23.90;42.53
23427;BME280;41148;45.420;10.952;2023-05-25T11:49:31;101023.81;;;24.17;40.66
23427;BME280;41148;45.420;10.952;2023-05-25T11:51:58;101020.69;;;24.10;41.66
23427;BME280;41148;45.420;10.952;2023-05-25T11:54:27;101012.66;;;24.20;41.91
23427;BME280;41148;45.420;10.952;2023-05-25T11:56:55;101012.31;;;24.24;42.06
23427;BME280;41148;45.420;10.952;2023-05-25T11:59:27;101005.13;;;24.23;44.19
23427;BME280;41148;45.420;10.952;2023-05-25T12:02:00;101008.72;;;24.24;43.58
23427;BME280;41148;45.420;10.952;2023-05-25T12:04:29;101007.22;;;24.20;41.53
23427;BME280;41148;45.420;10.952;2023-05-25T12:07:04;101014.94;;;24.37;39.99
23427;BME280;41148;45.420;10.952;2023-05-25T12:09:33;101002.56;;;24.33;40.64
23427;BME280;41148;45.420;10.952;2023-05-25T12:12:04;101018.03;;;24.33;42.06
23427;BME280;41148;45.420;10.952;2023-05-25T12:14:32;101008.88;;;24.45;41.20
23427;BME280;41148;45.420;10.952;2023-05-25T12:17:02;101004.28;;;24.23;41.04
23427;BME280;41148;45.420;10.952;2023-05-25T12:19:30;100982.09;;;24.16;39.90
23427;BME280;41148;45.420;10.952;2023-05-25T12:21:58;100997.34;;;24.41;40.77
23427;BME280;41148;45.420;10.952;2023-05-25T12:24:25;100991.53;;;24.57;40.34
23427;BME280;41148;45.420;10.952;2023-05-25T12:26:53;100977.31;;;24.31;43.12
23427;BME280;41148;45.420;10.952;2023-05-25T12:29:25;100979.53;;;24.37;42.03
23427;BME280;41148;45.420;10.952;2023-05-25T12:32:03;100975.56;;;24.52;41.34
23427;BME280;41148;45.420;10.952;2023-05-25T12:34:32;100978.41;;;24.51;40.87
23427;BME280;41148;45.420;10.952;2023-05-25T12:36:59;100965.19;;;24.35;41.62
23427;BME280;41148;45.420;10.952;2023-05-25T12:42:01;100971.34;;;24.48;41.64
23427;BME280;41148;45.420;10.952;2023-05-25T12:44:31;100957.75;;;24.37;41.80
23427;BME280;41148;45.420;10.952;2023-05-25T12:47:15;100969.50;;;24.49;41.90
23427;BME280;41148;45.420;10.952;2023-05-25T12:49:45;100958.94;;;24.22;42.97
23427;BME280;41148;45.420;10.952;2023-05-25T12:52:35;100963.16;;;24.60;40.22
23427;BME280;41148;45.420;10.952;2023-05-25T12:55:26;100960.59;;;24.36;41.39
23427;BME280;41148;45.420;10.952;2023-05-25T12:58:04;100973.09;;;24.49;40.91
23427;BME280;41148;45.420;10.952;2023-05-25T13:00:37;100971.13;;;24.51;41.54
23427;BME280;41148;45.420;10.952;2023-05-25T13:03:06;100969.81;;;24.78;40.47
23427;BME280;41148;45.420;10.952;2023-05-25T13:05:36;100976.91;;;24.80;39.42
23427;BME280;41148;45.420;10.952;2023-05-25T13:08:05;100967.13;;;24.67;41.41